createdAt,value
2023-06-04T00:00:13.792Z,38.49
2023-06-04T00:01:16.599Z,38.50
2023-06-04T00:02:13.911Z,38.47
2023-06-04T00:03:14.020Z,38.51
2023-06-04T00:04:13.957Z,38.51
2023-06-04T00:05:13.986Z,38.47
2023-06-04T00:06:14.006Z,38.42
2023-06-04T00:07:14.070Z,38.45
2023-06-04T00:08:14.072Z,38.44
2023-06-04T00:09:14.095Z,38.47
2023-06-04T00:10:14.103Z,38.41
2023-06-04T00:11:14.188Z,38.31
2023-06-04T00:12:14.160Z,38.25
2023-06-04T00:13:14.208Z,38.26
2023-06-04T00:14:14.227Z,38.15
2023-06-04T00:15:14.242Z,38.14
2023-06-04T00:16:14.319Z,37.99
2023-06-04T00:17:14.310Z,37.98
2023-06-04T00:18:14.364Z,37.96
2023-06-04T00:19:14.367Z,37.97
2023-06-04T00:20:14.383Z,37.93
2023-06-04T00:21:14.413Z,37.94
2023-06-04T00:22:14.452Z,37.91
2023-06-04T00:23:14.473Z,37.92
2023-06-04T00:24:14.521Z,37.93
2023-06-04T00:25:14.492Z,37.90
2023-06-04T00:26:14.521Z,37.88
2023-06-04T00:27:14.554Z,37.89
2023-06-04T00:28:14.604Z,37.87
2023-06-04T00:29:14.607Z,37.81
2023-06-04T00:30:14.626Z,37.80
2023-06-04T00:31:14.724Z,37.81
2023-06-04T00:32:14.806Z,37.80
2023-06-04T00:33:14.781Z,37.80
2023-06-04T00:34:14.737Z,37.71
2023-06-04T00:35:14.755Z,37.70
2023-06-04T00:36:14.786Z,37.64
2023-06-04T00:37:14.838Z,37.70
2023-06-04T00:38:14.842Z,37.70
2023-06-04T00:39:14.847Z,37.74
2023-06-04T00:40:14.888Z,37.85
2023-06-04T00:41:14.896Z,37.84
2023-06-04T00:42:14.940Z,37.90
2023-06-04T00:43:14.976Z,37.95
2023-06-04T00:44:14.983Z,37.93
2023-06-04T00:45:15.036Z,37.95
2023-06-04T00:46:15.173Z,37.96
2023-06-04T00:47:15.222Z,37.90
2023-06-04T00:48:15.328Z,37.92
2023-06-04T00:49:15.391Z,37.91
2023-06-04T00:50:15.502Z,37.98
2023-06-04T00:51:15.588Z,37.86
2023-06-04T00:52:15.695Z,37.89
2023-06-04T00:53:15.734Z,37.84
2023-06-04T00:54:15.852Z,37.87
2023-06-04T00:55:15.940Z,37.84
2023-06-04T00:56:15.995Z,37.85
2023-06-04T00:57:16.080Z,37.79
2023-06-04T00:58:16.123Z,37.73
2023-06-04T00:59:16.233Z,37.67
2023-06-04T01:00:16.291Z,37.68
2023-06-04T01:01:16.441Z,37.65
2023-06-04T01:02:16.446Z,37.69
2023-06-04T01:03:16.552Z,37.66
2023-06-04T01:04:16.570Z,37.59
2023-06-04T01:05:16.643Z,37.69
2023-06-04T01:06:16.695Z,37.73
2023-06-04T01:07:16.753Z,37.70
2023-06-04T01:08:16.801Z,37.78
2023-06-04T01:09:16.857Z,37.79
2023-06-04T01:10:16.931Z,37.83
2023-06-04T01:11:16.965Z,37.83
2023-06-04T01:12:17.009Z,37.77
2023-06-04T01:13:17.048Z,37.82
2023-06-04T01:14:17.136Z,37.89
2023-06-04T01:15:17.202Z,37.87
2023-06-04T01:16:17.234Z,37.85
2023-06-04T01:17:17.400Z,37.86
2023-06-04T01:18:17.355Z,37.82
2023-06-04T01:19:17.475Z,37.75
2023-06-04T01:20:17.545Z,37.81
2023-06-04T01:21:17.643Z,37.78
2023-06-04T01:22:17.763Z,37.80
2023-06-04T01:23:17.820Z,37.85
2023-06-04T01:24:17.919Z,37.84
2023-06-04T01:25:17.971Z,37.78
2023-06-04T01:26:18.087Z,37.78
2023-06-04T01:27:18.126Z,37.77
2023-06-04T01:28:18.268Z,37.73
2023-06-04T01:29:18.239Z,37.72
2023-06-04T01:30:18.273Z,37.74
2023-06-04T01:31:18.342Z,37.70
2023-06-04T01:32:18.718Z,37.69
2023-06-04T01:33:18.404Z,37.70
2023-06-04T01:34:18.477Z,37.72
2023-06-04T01:35:18.524Z,37.66
2023-06-04T01:36:18.533Z,37.64
2023-06-04T01:37:18.558Z,37.67
2023-06-04T01:38:18.608Z,37.65
2023-06-04T01:39:18.648Z,37.64
2023-06-04T01:40:18.694Z,37.64
2023-06-04T01:41:18.748Z,37.49
2023-06-04T01:42:18.803Z,37.54
2023-06-04T01:43:18.832Z,37.59
2023-06-04T01:44:18.876Z,37.48
2023-06-04T01:45:18.930Z,37.45
2023-06-04T01:46:18.999Z,37.45
2023-06-04T01:47:19.004Z,37.45
2023-06-04T01:48:19.053Z,37.47
2023-06-04T01:49:19.119Z,37.47
2023-06-04T01:50:19.158Z,37.49
2023-06-04T01:51:19.208Z,37.48
2023-06-04T01:52:19.247Z,37.34
2023-06-04T01:53:19.287Z,37.26
2023-06-04T01:54:19.313Z,37.26
2023-06-04T01:55:19.350Z,37.25
2023-06-04T01:56:19.394Z,37.16
2023-06-04T01:57:19.476Z,37.18
2023-06-04T01:58:19.525Z,37.17
2023-06-04T01:59:19.537Z,37.14
2023-06-04T02:00:19.569Z,37.07
2023-06-04T02:01:19.656Z,37.02
2023-06-04T02:02:19.745Z,37.01
2023-06-04T02:03:19.888Z,36.90
2023-06-04T02:04:19.907Z,36.86
2023-06-04T02:05:19.949Z,36.82
2023-06-04T02:06:20.054Z,36.77
2023-06-04T02:07:20.101Z,36.69
2023-06-04T02:08:20.269Z,36.63
2023-06-04T02:09:20.275Z,36.55
2023-06-04T02:10:20.388Z,36.47
2023-06-04T02:11:20.468Z,36.36
2023-06-04T02:12:20.549Z,36.26
2023-06-04T02:13:20.662Z,36.25
2023-06-04T02:14:20.744Z,36.27
2023-06-04T02:15:20.818Z,36.18
2023-06-04T02:16:20.888Z,36.27
2023-06-04T02:17:20.911Z,36.27
2023-06-04T02:18:20.967Z,36.27
2023-06-04T02:19:21.014Z,36.33
2023-06-04T02:20:21.073Z,36.33
2023-06-04T02:21:21.113Z,36.22
2023-06-04T02:22:21.166Z,36.28
2023-06-04T02:23:21.241Z,36.23
2023-06-04T02:24:21.209Z,36.19
2023-06-04T02:25:21.261Z,36.22
2023-06-04T02:26:21.329Z,36.21
2023-06-04T02:27:21.320Z,36.25
2023-06-04T02:28:21.362Z,36.16
2023-06-04T02:29:21.375Z,36.20
2023-06-04T02:30:21.423Z,36.25
2023-06-04T02:31:21.497Z,36.18
2023-06-04T02:32:21.586Z,36.21
2023-06-04T02:33:21.552Z,36.20
2023-06-04T02:34:21.597Z,36.22
2023-06-04T02:35:21.636Z,36.32
2023-06-04T02:36:21.677Z,36.34
2023-06-04T02:37:21.714Z,36.29
2023-06-04T02:38:21.779Z,36.40
2023-06-04T02:39:21.922Z,36.47
2023-06-04T02:40:21.879Z,36.48
2023-06-04T02:41:21.930Z,36.46
2023-06-04T02:42:21.982Z,36.32
2023-06-04T02:43:22.021Z,36.17
2023-06-04T02:44:22.066Z,36.14
2023-06-04T02:45:22.124Z,36.10
2023-06-04T02:46:22.207Z,36.16
2023-06-04T02:47:22.204Z,36.23
2023-06-04T02:48:22.279Z,36.07
2023-06-04T02:49:22.304Z,36.07
2023-06-04T02:50:22.360Z,36.15
2023-06-04T02:51:22.427Z,36.07
2023-06-04T02:52:22.445Z,36.04
2023-06-04T02:53:22.518Z,36.06
2023-06-04T02:54:22.590Z,36.02
2023-06-04T02:55:22.635Z,35.96
2023-06-04T02:56:22.671Z,35.99
2023-06-04T02:57:22.723Z,35.96
2023-06-04T02:58:22.791Z,35.95
2023-06-04T02:59:22.872Z,35.98
2023-06-04T03:00:22.889Z,36.05
2023-06-04T03:01:22.991Z,36.04
2023-06-04T03:02:23.073Z,35.92
2023-06-04T03:03:23.187Z,36.05
2023-06-04T03:04:23.161Z,36.03
2023-06-04T03:05:23.227Z,36.04
2023-06-04T03:06:23.296Z,36.01
2023-06-04T03:07:23.341Z,35.97
2023-06-04T03:08:23.477Z,35.96
2023-06-04T03:09:23.498Z,35.95
2023-06-04T03:10:23.561Z,35.96
2023-06-04T03:11:23.623Z,35.89
2023-06-04T03:12:23.688Z,35.86
2023-06-04T03:13:23.780Z,35.89
2023-06-04T03:14:23.800Z,35.90
2023-06-04T03:15:23.895Z,35.98
2023-06-04T03:16:24.010Z,35.95
2023-06-04T03:17:24.039Z,35.92
2023-06-04T03:18:24.088Z,35.90
2023-06-04T03:19:24.167Z,36.02
2023-06-04T03:20:24.191Z,36.11
2023-06-04T03:21:24.320Z,35.98
2023-06-04T03:22:24.332Z,36.01
2023-06-04T03:23:24.383Z,35.85
2023-06-04T03:24:24.423Z,35.91
2023-06-04T03:25:24.464Z,35.86
2023-06-04T03:26:24.583Z,35.91
2023-06-04T03:27:24.608Z,35.91
2023-06-04T03:28:24.686Z,35.86
2023-06-04T03:29:24.758Z,35.80
2023-06-04T03:30:24.824Z,35.78
2023-06-04T03:31:24.888Z,35.78
2023-06-04T03:32:24.980Z,35.73
2023-06-04T03:33:24.985Z,35.58
2023-06-04T03:34:25.034Z,35.54
2023-06-04T03:35:25.101Z,35.44
2023-06-04T03:36:25.160Z,35.44
2023-06-04T03:37:25.236Z,35.44
2023-06-04T03:38:25.250Z,35.38
2023-06-04T03:39:25.335Z,35.31
2023-06-04T03:40:26.308Z,35.31
2023-06-04T03:41:25.435Z,35.29
2023-06-04T03:42:25.487Z,35.22
2023-06-04T03:43:25.563Z,35.25
2023-06-04T03:44:25.597Z,35.22
2023-06-04T03:45:25.657Z,35.11
2023-06-04T03:46:25.768Z,35.07
2023-06-04T03:47:25.789Z,35.12
2023-06-04T03:48:25.842Z,35.15
2023-06-04T03:49:25.882Z,35.11
2023-06-04T03:50:25.946Z,35.08
2023-06-04T03:51:26.002Z,35.12
2023-06-04T03:52:26.093Z,35.14
2023-06-04T03:53:26.165Z,35.06
2023-06-04T03:54:26.201Z,35.05
2023-06-04T03:55:26.288Z,35.11
2023-06-04T03:56:26.338Z,35.06
2023-06-04T03:57:26.397Z,35.02
2023-06-04T03:58:26.437Z,34.99
2023-06-04T03:59:26.501Z,35.01
2023-06-04T04:00:26.562Z,34.99
2023-06-04T04:01:26.630Z,34.96
2023-06-04T04:02:26.816Z,34.88
2023-06-04T04:03:26.907Z,34.76
2023-06-04T04:04:26.899Z,34.76
2023-06-04T04:05:26.839Z,34.79
2023-06-04T04:06:26.853Z,34.74
2023-06-04T04:07:26.935Z,34.70
2023-06-04T04:08:26.984Z,34.73
2023-06-04T04:09:27.021Z,34.81
2023-06-04T04:10:27.089Z,34.78
2023-06-04T04:11:27.117Z,34.81
2023-06-04T04:12:27.257Z,34.84
2023-06-04T04:13:27.258Z,34.80
2023-06-04T04:14:27.258Z,34.74
2023-06-04T04:15:27.322Z,34.71
2023-06-04T04:16:27.412Z,34.67
2023-06-04T04:17:27.466Z,34.68
2023-06-04T04:18:27.487Z,34.59
2023-06-04T04:19:27.546Z,34.64
2023-06-04T04:20:27.557Z,34.65
2023-06-04T04:21:27.637Z,34.61
2023-06-04T04:22:27.655Z,34.68
2023-06-04T04:23:27.756Z,34.60
2023-06-04T04:24:27.795Z,34.60
2023-06-04T04:25:27.840Z,34.56
2023-06-04T04:26:27.906Z,34.54
2023-06-04T04:27:27.945Z,34.46
2023-06-04T04:28:28.032Z,34.49
2023-06-04T04:29:28.058Z,34.55
2023-06-04T04:30:28.082Z,34.50
2023-06-04T04:31:28.203Z,34.47
2023-06-04T04:32:28.235Z,34.42
2023-06-04T04:33:28.304Z,34.46
2023-06-04T04:34:28.399Z,34.48
2023-06-04T04:35:28.468Z,34.48
2023-06-04T04:36:28.558Z,34.48
2023-06-04T04:37:28.640Z,34.50
2023-06-04T04:38:28.726Z,34.57
2023-06-04T04:39:28.846Z,34.53
2023-06-04T04:40:28.918Z,34.54
2023-06-04T04:41:29.043Z,34.58
2023-06-04T04:42:29.142Z,34.57
2023-06-04T04:43:29.188Z,34.58
2023-06-04T04:44:29.289Z,34.48
2023-06-04T04:45:29.340Z,34.55
2023-06-04T04:46:29.490Z,34.60
2023-06-04T04:47:29.432Z,34.63
2023-06-04T04:48:29.477Z,34.69
2023-06-04T04:49:29.591Z,34.72
2023-06-04T04:50:29.559Z,34.71
2023-06-04T04:51:29.614Z,34.73
2023-06-04T04:52:29.649Z,34.72
2023-06-04T04:53:29.713Z,34.70
2023-06-04T04:54:29.742Z,34.68
2023-06-04T04:55:29.796Z,34.69
2023-06-04T04:56:29.821Z,34.70
2023-06-04T04:57:29.877Z,34.77
2023-06-04T04:58:29.907Z,34.78
2023-06-04T04:59:29.964Z,34.75
2023-06-04T05:00:29.992Z,34.73
2023-06-04T05:01:30.072Z,34.73
2023-06-04T05:02:30.118Z,34.75
2023-06-04T05:03:30.127Z,34.76
2023-06-04T05:04:30.226Z,34.81
2023-06-04T05:05:30.248Z,34.75
2023-06-04T05:06:30.259Z,34.78
2023-06-04T05:07:30.331Z,34.81
2023-06-04T05:08:30.348Z,34.79
2023-06-04T05:09:30.414Z,34.79
2023-06-04T05:10:30.474Z,34.79
2023-06-04T05:11:30.506Z,34.80
2023-06-04T05:12:30.543Z,34.88
2023-06-04T05:13:30.598Z,34.88
2023-06-04T05:14:30.648Z,34.93
2023-06-04T05:15:30.739Z,34.93
2023-06-04T05:16:30.778Z,34.94
2023-06-04T05:17:30.896Z,35.01
2023-06-04T05:18:30.846Z,35.02
2023-06-04T05:19:30.869Z,34.99
2023-06-04T05:20:30.945Z,34.95
2023-06-04T05:21:30.996Z,34.96
2023-06-04T05:22:31.044Z,34.94
2023-06-04T05:23:31.089Z,34.90
2023-06-04T05:24:31.099Z,34.81
2023-06-04T05:25:31.188Z,34.83
2023-06-04T05:26:31.220Z,34.81
2023-06-04T05:27:31.241Z,34.80
2023-06-04T05:28:31.311Z,34.80
2023-06-04T05:29:31.359Z,34.78
2023-06-04T05:30:31.390Z,34.80
2023-06-04T05:31:31.489Z,34.86
2023-06-04T05:32:31.553Z,34.80
2023-06-04T05:33:31.569Z,34.79
2023-06-04T05:34:31.638Z,34.85
2023-06-04T05:35:31.653Z,34.86
2023-06-04T05:36:31.742Z,34.95
2023-06-04T05:37:31.792Z,34.94
2023-06-04T05:38:31.902Z,35.01
2023-06-04T05:39:31.914Z,35.07
2023-06-04T05:40:31.950Z,35.02
2023-06-04T05:41:32.017Z,35.02
2023-06-04T05:42:32.040Z,35.06
2023-06-04T05:43:32.117Z,35.13
2023-06-04T05:44:32.162Z,35.17
2023-06-04T05:45:32.220Z,35.14
2023-06-04T05:46:32.391Z,35.23
2023-06-04T05:47:32.415Z,35.20
2023-06-04T05:48:32.444Z,35.18
2023-06-04T05:49:32.497Z,35.19
2023-06-04T05:50:32.541Z,35.22
2023-06-04T05:51:32.614Z,35.17
2023-06-04T05:52:32.648Z,35.12
2023-06-04T05:53:32.715Z,35.11
2023-06-04T05:54:33.363Z,35.09
2023-06-04T05:55:32.821Z,35.06
2023-06-04T05:56:32.886Z,35.05
2023-06-04T05:57:32.906Z,35.03
2023-06-04T05:58:32.966Z,34.98
2023-06-04T05:59:33.043Z,34.99
2023-06-04T06:00:33.101Z,35.03
2023-06-04T06:01:33.172Z,35.02
2023-06-04T06:02:33.333Z,34.98
2023-06-04T06:03:33.324Z,34.98
2023-06-04T06:04:33.391Z,34.96
2023-06-04T06:05:33.354Z,34.93
2023-06-04T06:06:33.421Z,34.92
2023-06-04T06:07:33.560Z,34.97
2023-06-04T06:08:33.552Z,35.00
2023-06-04T06:09:33.579Z,35.04
2023-06-04T06:10:33.613Z,35.10
2023-06-04T06:11:33.683Z,35.05
2023-06-04T06:12:33.740Z,35.12
2023-06-04T06:13:33.779Z,35.06
2023-06-04T06:14:33.839Z,35.10
2023-06-04T06:15:33.926Z,35.10
2023-06-04T06:16:33.937Z,35.05
2023-06-04T06:17:34.073Z,35.08
2023-06-04T06:18:34.124Z,35.10
2023-06-04T06:19:34.120Z,35.14
2023-06-04T06:20:34.188Z,35.16
2023-06-04T06:21:34.274Z,35.12
2023-06-04T06:22:34.292Z,35.19
2023-06-04T06:23:34.377Z,35.20
2023-06-04T06:24:34.435Z,35.15
2023-06-04T06:25:34.474Z,35.11
2023-06-04T06:26:34.546Z,35.20
2023-06-04T06:27:34.599Z,35.13
2023-06-04T06:28:34.657Z,35.12
2023-06-04T06:29:34.708Z,35.11
2023-06-04T06:30:34.794Z,35.12
2023-06-04T06:31:34.915Z,35.11
2023-06-04T06:32:34.955Z,35.10
2023-06-04T06:33:34.969Z,35.03
2023-06-04T06:34:35.018Z,35.03
2023-06-04T06:35:35.073Z,34.95
2023-06-04T06:36:35.149Z,34.90
2023-06-04T06:37:35.185Z,34.87
2023-06-04T06:38:35.232Z,34.83
2023-06-04T06:39:35.278Z,34.84
2023-06-04T06:40:35.302Z,34.83
2023-06-04T06:41:35.361Z,34.78
2023-06-04T06:42:35.427Z,34.80
2023-06-04T06:43:35.463Z,34.78
2023-06-04T06:44:35.510Z,34.71
2023-06-04T06:45:37.871Z,34.76
2023-06-04T06:46:35.673Z,34.74
2023-06-04T06:47:35.646Z,34.76
2023-06-04T06:48:35.719Z,34.75
2023-06-04T06:49:35.773Z,34.79
2023-06-04T06:50:35.823Z,34.78
2023-06-04T06:51:35.892Z,34.74
2023-06-04T06:52:35.972Z,34.72
2023-06-04T06:53:36.002Z,34.75
2023-06-04T06:54:36.057Z,34.65
2023-06-04T06:55:36.120Z,34.68
2023-06-04T06:56:36.146Z,34.65
2023-06-04T06:57:36.197Z,34.59
2023-06-04T06:58:36.222Z,34.61
2023-06-04T06:59:36.260Z,34.63
2023-06-04T07:00:36.372Z,34.66
2023-06-04T07:01:36.522Z,34.63
2023-06-04T07:02:36.488Z,34.71
2023-06-04T07:03:36.473Z,34.68
2023-06-04T07:04:36.467Z,34.65
2023-06-04T07:05:36.511Z,34.58
2023-06-04T07:06:36.530Z,34.59
2023-06-04T07:07:36.607Z,34.52
2023-06-04T07:08:36.624Z,34.53
2023-06-04T07:09:36.681Z,34.49
2023-06-04T07:10:36.735Z,34.49
2023-06-04T07:11:36.761Z,34.36
2023-06-04T07:12:36.815Z,34.34
2023-06-04T07:13:36.866Z,34.36
2023-06-04T07:14:36.922Z,34.32
2023-06-04T07:15:36.934Z,34.27
2023-06-04T07:16:37.033Z,34.23
2023-06-04T07:17:37.133Z,34.18
2023-06-04T07:18:37.110Z,34.15
2023-06-04T07:19:37.197Z,34.11
2023-06-04T07:20:37.284Z,34.09
2023-06-04T07:21:37.369Z,34.01
2023-06-04T07:22:37.429Z,34.01
2023-06-04T07:23:37.548Z,33.89
2023-06-04T07:24:37.597Z,33.87
2023-06-04T07:25:37.690Z,33.79
2023-06-04T07:26:37.779Z,33.81
2023-06-04T07:27:37.884Z,33.77
2023-06-04T07:28:37.943Z,33.77
2023-06-04T07:29:38.063Z,33.76
2023-06-04T07:30:38.161Z,33.73
2023-06-04T07:31:38.249Z,33.71
2023-06-04T07:32:38.383Z,33.69
2023-06-04T07:33:38.389Z,33.63
2023-06-04T07:34:38.477Z,33.62
2023-06-04T07:35:38.572Z,33.61
2023-06-04T07:36:39.399Z,33.57
2023-06-04T07:37:38.708Z,33.55
2023-06-04T07:38:38.821Z,33.57
2023-06-04T07:39:38.873Z,33.55
2023-06-04T07:40:38.946Z,33.56
2023-06-04T07:41:39.065Z,33.53
2023-06-04T07:42:39.115Z,33.51
2023-06-04T07:43:39.205Z,33.49
2023-06-04T07:44:39.320Z,33.50
2023-06-04T07:45:39.385Z,33.44
2023-06-04T07:46:39.674Z,33.44
2023-06-04T07:47:39.680Z,33.46
2023-06-04T07:48:39.623Z,33.44
2023-06-04T07:49:44.592Z,33.40
2023-06-04T07:50:41.638Z,33.38
2023-06-04T07:51:39.770Z,33.36
2023-06-04T07:52:39.781Z,33.34
2023-06-04T07:53:39.851Z,33.29
2023-06-04T07:54:39.864Z,33.32
2023-06-04T07:55:39.862Z,33.30
2023-06-04T07:56:39.917Z,33.32
2023-06-04T07:57:39.952Z,33.27
2023-06-04T07:58:39.981Z,33.33
2023-06-04T07:59:39.993Z,33.29
2023-06-04T08:00:40.071Z,33.32
2023-06-04T08:01:40.111Z,33.23
2023-06-04T08:02:40.298Z,33.25
2023-06-04T08:03:40.420Z,33.22
2023-06-04T08:04:40.425Z,33.21
2023-06-04T08:05:40.408Z,33.18
2023-06-04T08:06:40.451Z,33.15
2023-06-04T08:07:40.534Z,33.15
2023-06-04T08:08:40.632Z,33.04
2023-06-04T08:09:40.704Z,33.05
2023-06-04T08:10:40.767Z,33.06
2023-06-04T08:11:40.852Z,33.11
2023-06-04T08:12:40.922Z,33.08
2023-06-04T08:13:40.967Z,33.12
2023-06-04T08:14:41.060Z,33.17
2023-06-04T08:15:41.141Z,33.17
2023-06-04T08:16:41.251Z,33.19
2023-06-04T08:17:41.358Z,33.18
2023-06-04T08:18:41.456Z,33.15
2023-06-04T08:19:41.437Z,33.20
2023-06-04T08:20:41.507Z,33.13
2023-06-04T08:21:41.548Z,33.18
2023-06-04T08:22:41.644Z,33.14
2023-06-04T08:23:41.778Z,33.06
2023-06-04T08:24:41.801Z,33.07
2023-06-04T08:25:41.868Z,33.03
2023-06-04T08:26:41.955Z,33.07
2023-06-04T08:27:42.003Z,33.04
2023-06-04T08:28:42.111Z,33.08
2023-06-04T08:29:42.164Z,33.07
2023-06-04T08:30:42.199Z,33.11
2023-06-04T08:31:42.354Z,33.07
2023-06-04T08:32:42.407Z,33.02
2023-06-04T08:33:42.377Z,33.05
2023-06-04T08:34:42.405Z,32.99
2023-06-04T08:35:42.456Z,33.08
2023-06-04T08:36:42.486Z,32.88
2023-06-04T08:37:42.563Z,32.71
2023-06-04T08:38:43.107Z,32.79
2023-06-04T08:39:42.628Z,32.83
2023-06-04T08:40:42.683Z,32.66
2023-06-04T08:41:42.755Z,32.80
2023-06-04T08:42:42.818Z,32.87
2023-06-04T08:43:42.812Z,32.69
2023-06-04T08:44:42.880Z,32.73
2023-06-04T08:45:43.008Z,32.73
2023-06-04T08:46:43.025Z,32.75
2023-06-04T08:47:43.123Z,32.61
2023-06-04T08:48:43.158Z,32.68
2023-06-04T08:49:43.258Z,32.70
2023-06-04T08:50:43.306Z,32.74
2023-06-04T08:51:43.359Z,32.75
2023-06-04T08:52:43.429Z,32.77
2023-06-04T08:53:43.542Z,32.79
2023-06-04T08:54:43.601Z,32.66
2023-06-04T08:55:43.674Z,32.65
2023-06-04T08:56:43.714Z,32.67
2023-06-04T08:57:43.804Z,32.58
2023-06-04T08:58:43.850Z,32.51
2023-06-04T08:59:43.900Z,32.47
2023-06-04T09:00:43.971Z,32.47
2023-06-04T09:01:44.092Z,32.43
2023-06-04T09:02:44.161Z,32.43
2023-06-04T09:03:44.176Z,32.43
2023-06-04T09:04:44.209Z,32.33
2023-06-04T09:05:44.295Z,32.38
2023-06-04T09:06:44.370Z,32.38
2023-06-04T09:07:44.404Z,32.32
2023-06-04T09:08:48.728Z,32.13
2023-06-04T09:09:45.570Z,32.10
2023-06-04T09:10:44.476Z,32.08
2023-06-04T09:11:44.497Z,32.07
2023-06-04T09:12:44.540Z,32.13
2023-06-04T09:13:44.547Z,32.17
2023-06-04T09:14:44.573Z,32.13
2023-06-04T09:15:44.648Z,32.20
2023-06-04T09:16:44.605Z,32.15
2023-06-04T09:17:44.722Z,32.13
2023-06-04T09:18:44.675Z,32.13
2023-06-04T09:19:44.685Z,32.10
2023-06-04T09:20:44.704Z,32.16
2023-06-04T09:21:44.740Z,32.15
2023-06-04T09:22:44.767Z,32.14
2023-06-04T09:23:44.775Z,32.15
2023-06-04T09:24:44.795Z,32.04
2023-06-04T09:25:44.810Z,32.10
2023-06-04T09:26:44.806Z,32.07
2023-06-04T09:27:44.843Z,32.10
2023-06-04T09:28:44.852Z,32.12
2023-06-04T09:29:44.899Z,32.11
2023-06-04T09:30:44.907Z,32.07
2023-06-04T09:31:45.174Z,32.11
2023-06-04T09:32:45.040Z,32.06
2023-06-04T09:33:45.064Z,32.06
2023-06-04T09:34:45.098Z,31.93
2023-06-04T09:35:45.136Z,32.02
2023-06-04T09:36:45.231Z,32.02
2023-06-04T09:37:45.257Z,32.00
2023-06-04T09:38:45.285Z,31.98
2023-06-04T09:39:45.318Z,31.95
2023-06-04T09:40:45.352Z,31.92
2023-06-04T09:41:45.427Z,31.86
2023-06-04T09:42:45.436Z,31.89
2023-06-04T09:43:45.468Z,31.88
2023-06-04T09:44:45.547Z,31.87
2023-06-04T09:45:45.560Z,31.88
2023-06-04T09:46:45.688Z,31.82
2023-06-04T09:47:45.739Z,31.87
2023-06-04T09:48:45.645Z,31.84
2023-06-04T09:49:45.706Z,31.87
2023-06-04T09:50:45.763Z,31.84
2023-06-04T09:51:45.766Z,31.83
2023-06-04T09:52:45.805Z,31.84
2023-06-04T09:53:45.808Z,31.85
2023-06-04T09:54:45.873Z,31.78
2023-06-04T09:55:45.897Z,31.81
2023-06-04T09:56:45.938Z,31.81
2023-06-04T09:57:45.985Z,31.80
2023-06-04T09:58:46.023Z,31.84
2023-06-04T09:59:46.053Z,31.77
2023-06-04T10:00:46.200Z,31.76
2023-06-04T10:01:46.148Z,31.59
2023-06-04T10:02:46.220Z,31.29
2023-06-04T10:03:46.211Z,31.25
2023-06-04T10:04:46.217Z,31.28
2023-06-04T10:05:46.249Z,31.29
2023-06-04T10:06:46.279Z,31.39
2023-06-04T10:07:46.308Z,31.46
2023-06-04T10:08:46.373Z,31.48
2023-06-04T10:09:46.390Z,31.52
2023-06-04T10:10:46.434Z,31.55
2023-06-04T10:11:46.487Z,31.57
2023-06-04T10:12:46.514Z,31.61
2023-06-04T10:13:46.570Z,31.55
2023-06-04T10:14:46.576Z,31.52
2023-06-04T10:15:46.579Z,31.56
2023-06-04T10:16:46.675Z,31.55
2023-06-04T10:17:46.679Z,31.51
2023-06-04T10:18:46.690Z,31.52
2023-06-04T10:19:46.701Z,31.48
2023-06-04T10:20:46.761Z,31.51
2023-06-04T10:21:46.779Z,31.48
2023-06-04T10:22:46.829Z,31.51
2023-06-04T10:23:46.884Z,31.48
2023-06-04T10:24:46.886Z,31.53
2023-06-04T10:25:46.893Z,31.51
2023-06-04T10:26:46.908Z,31.51
2023-06-04T10:27:46.968Z,31.48
2023-06-04T10:28:46.968Z,31.47
2023-06-04T10:29:47.018Z,31.47
2023-06-04T10:30:47.031Z,31.53
2023-06-04T10:31:47.085Z,31.46
2023-06-04T10:32:47.107Z,31.51
2023-06-04T10:33:47.080Z,31.51
2023-06-04T10:34:47.121Z,31.48
2023-06-04T10:35:47.154Z,31.46
2023-06-04T10:36:47.208Z,31.47
2023-06-04T10:37:47.211Z,31.44
2023-06-04T10:38:47.303Z,31.43
2023-06-04T10:39:47.353Z,31.40
2023-06-04T10:40:47.433Z,31.47
2023-06-04T10:41:48.002Z,31.46
2023-06-04T10:42:47.528Z,31.43
2023-06-04T10:43:47.521Z,31.46
2023-06-04T10:44:47.555Z,31.45
2023-06-04T10:45:47.599Z,31.42
2023-06-04T10:46:47.591Z,31.42
2023-06-04T10:47:47.709Z,31.47
2023-06-04T10:48:47.661Z,31.42
2023-06-04T10:49:47.690Z,31.42
2023-06-04T10:50:47.704Z,31.42
2023-06-04T10:51:47.749Z,31.39
2023-06-04T10:52:47.775Z,31.45
2023-06-04T10:53:47.763Z,31.41
2023-06-04T10:54:47.804Z,31.39
2023-06-04T10:55:47.816Z,31.36
2023-06-04T10:56:47.858Z,31.35
2023-06-04T10:57:47.870Z,31.38
2023-06-04T10:58:47.910Z,31.38
2023-06-04T10:59:47.887Z,31.36
2023-06-04T11:00:47.920Z,31.41
2023-06-04T11:01:47.974Z,31.36
2023-06-04T11:02:48.026Z,31.31
2023-06-04T11:03:48.014Z,31.32
2023-06-04T11:04:47.994Z,31.34
2023-06-04T11:05:48.052Z,31.35
2023-06-04T11:06:48.048Z,31.29
2023-06-04T11:07:48.095Z,31.34
2023-06-04T11:08:48.091Z,31.32
2023-06-04T11:09:48.145Z,31.32
2023-06-04T11:10:48.131Z,31.32
2023-06-04T11:11:48.206Z,31.34
2023-06-04T11:12:48.266Z,31.32
2023-06-04T11:13:48.197Z,31.37
2023-06-04T11:14:48.253Z,31.34
2023-06-04T11:15:48.319Z,31.29
2023-06-04T11:16:48.307Z,31.32
2023-06-04T11:17:48.358Z,31.29
2023-06-04T11:18:48.333Z,31.27
2023-06-04T11:19:48.368Z,31.29
2023-06-04T11:20:48.398Z,31.31
2023-06-04T11:21:48.419Z,31.23
2023-06-04T11:22:48.472Z,31.21
2023-06-04T11:23:48.512Z,31.24
2023-06-04T11:24:48.479Z,31.25
2023-06-04T11:25:48.513Z,31.18
2023-06-04T11:27:00.331Z,31.15
2023-06-04T11:27:49.549Z,31.21
2023-06-04T11:28:48.550Z,31.22
2023-06-04T11:29:48.597Z,31.21
2023-06-04T11:30:48.586Z,31.22
2023-06-04T11:31:48.639Z,31.25
2023-06-04T11:32:48.661Z,31.27
2023-06-04T11:33:48.651Z,31.21
2023-06-04T11:34:48.632Z,31.18
2023-06-04T11:35:48.685Z,31.23
2023-06-04T11:36:48.714Z,31.20
2023-06-04T11:37:48.692Z,31.23
2023-06-04T11:38:48.721Z,31.22
2023-06-04T11:39:48.729Z,31.14
2023-06-04T11:40:48.747Z,31.10
2023-06-04T11:41:48.764Z,31.07
2023-06-04T11:42:48.855Z,31.10
2023-06-04T11:43:48.762Z,31.16
2023-06-04T11:44:48.795Z,31.14
2023-06-04T11:45:48.821Z,31.17
2023-06-04T11:46:48.843Z,31.15
2023-06-04T11:47:48.926Z,31.21
2023-06-04T11:48:48.925Z,31.17
2023-06-04T11:49:48.837Z,31.22
2023-06-04T11:50:48.868Z,31.25
2023-06-04T11:51:48.893Z,31.19
2023-06-04T11:52:48.935Z,31.19
2023-06-04T11:53:48.929Z,31.22
2023-06-04T11:54:48.925Z,31.24
2023-06-04T11:55:48.949Z,31.31
2023-06-04T11:56:48.967Z,31.29
2023-06-04T11:57:48.958Z,31.33
2023-06-04T11:58:48.985Z,31.35
2023-06-04T11:59:49.016Z,31.35
2023-06-04T12:00:49.048Z,31.36
2023-06-04T12:01:49.061Z,31.38
2023-06-04T12:02:49.136Z,31.31
2023-06-04T12:03:49.075Z,31.36
2023-06-04T12:04:49.083Z,31.41
2023-06-04T12:05:49.091Z,31.41
2023-06-04T12:06:49.123Z,31.41
2023-06-04T12:07:49.195Z,31.36
2023-06-04T12:08:49.158Z,31.41
2023-06-04T12:09:49.127Z,31.36
2023-06-04T12:10:49.172Z,31.39
2023-06-04T12:11:49.180Z,31.38
2023-06-04T12:12:49.180Z,31.38
2023-06-04T12:13:49.246Z,31.42
2023-06-04T12:14:49.250Z,31.41
2023-06-04T12:15:49.248Z,31.38
2023-06-04T12:16:49.354Z,31.40
2023-06-04T12:17:49.333Z,31.41
2023-06-04T12:18:49.295Z,31.38
2023-06-04T12:19:49.375Z,31.38
2023-06-04T12:20:49.348Z,31.41
2023-06-04T12:21:49.409Z,31.39
2023-06-04T12:22:49.421Z,31.39
2023-06-04T12:23:49.465Z,31.38
2023-06-04T12:24:49.423Z,31.34
2023-06-04T12:25:49.476Z,31.40
2023-06-04T12:26:49.570Z,31.37
2023-06-04T12:27:49.516Z,31.37
2023-06-04T12:28:49.550Z,31.32
2023-06-04T12:29:49.587Z,31.34
2023-06-04T12:30:49.641Z,31.34
2023-06-04T12:31:49.624Z,31.37
2023-06-04T12:32:49.802Z,31.32
2023-06-04T12:33:49.712Z,31.24
2023-06-04T12:34:49.732Z,31.26
2023-06-04T12:35:49.800Z,31.26
2023-06-04T12:36:49.800Z,31.30
2023-06-04T12:37:49.844Z,31.29
2023-06-04T12:38:49.835Z,31.32
2023-06-04T12:39:49.859Z,31.16
2023-06-04T12:40:49.881Z,31.13
2023-06-04T12:41:49.938Z,31.15
2023-06-04T12:42:49.958Z,31.09
2023-06-04T12:43:49.979Z,31.07
2023-06-04T12:44:49.985Z,31.00
2023-06-04T12:45:49.998Z,31.00
2023-06-04T12:46:50.040Z,31.02
2023-06-04T12:47:50.055Z,31.04
2023-06-04T12:48:50.060Z,30.99
2023-06-04T12:49:50.078Z,31.00
2023-06-04T12:50:50.105Z,31.05
2023-06-04T12:51:50.135Z,31.10
2023-06-04T12:52:50.179Z,31.07